createdAt,value
2022-09-28T00:00:47.984Z,98617.47
2022-09-28T00:01:50.246Z,98621.84
2022-09-28T00:02:57.558Z,98616.34
2022-09-28T00:04:00.152Z,98621.59
2022-09-28T00:05:02.631Z,98619.63
2022-09-28T00:06:10.782Z,98622.38
2022-09-28T00:07:12.958Z,98617.69
2022-09-28T00:08:15.140Z,98618.53
2022-09-28T00:09:17.935Z,98621.28
2022-09-28T00:10:23.833Z,98620.16
2022-09-28T00:11:28.335Z,98622.09
2022-09-28T00:12:31.625Z,98615.47
2022-09-28T00:13:34.378Z,98616.59
2022-09-28T00:14:37.209Z,98612.72
2022-09-28T00:15:39.936Z,98611.09
2022-09-28T00:16:44.381Z,98611.88
2022-09-28T00:17:46.584Z,98601.72
2022-09-28T00:18:51.328Z,98608.06
2022-09-28T00:19:54.094Z,98609.97
2022-09-28T00:21:05.844Z,98601.72
2022-09-28T00:22:08.087Z,98607.22
2022-09-28T00:23:10.224Z,98606.16
2022-09-28T00:24:17.304Z,98601.72
2022-09-28T00:25:22.081Z,98601.44
2022-09-28T00:26:25.524Z,98597.91
2022-09-28T00:27:30.472Z,98602.25
2022-09-28T00:28:32.856Z,98605.00
2022-09-28T00:29:37.513Z,98599.50
2022-09-28T00:30:39.670Z,98600.34
2022-09-28T00:31:42.198Z,98600.34
2022-09-28T00:32:44.490Z,98589.34
2022-09-28T00:33:50.883Z,98594.84
2022-09-28T00:34:53.138Z,98595.34
2022-09-28T00:35:57.558Z,98602.50
2022-09-28T00:37:03.115Z,98600.84
2022-09-28T00:38:05.274Z,98592.59
2022-09-28T00:39:08.838Z,98590.69
2022-09-28T00:40:11.020Z,98593.13
2022-09-28T00:41:13.911Z,98592.03
2022-09-28T00:42:26.594Z,98593.13
2022-09-28T00:43:28.765Z,98592.84
2022-09-28T00:44:47.806Z,98587.34
2022-09-28T00:46:04.368Z,98590.09
2022-09-28T00:47:23.465Z,98588.19
2022-09-28T00:48:29.362Z,98592.84
2022-09-28T00:49:36.218Z,98588.19
2022-09-28T00:50:38.997Z,98581.53
2022-09-28T00:51:44.148Z,98582.66
2022-09-28T00:53:03.473Z,98577.16
2022-09-28T00:54:07.802Z,98577.97
2022-09-28T00:55:14.689Z,98584.28
2022-09-28T00:56:21.362Z,98586.78
2022-09-28T00:57:24.195Z,98585.13
2022-09-28T00:58:33.959Z,98578.78
2022-09-28T00:59:36.147Z,98584.28
2022-09-28T01:00:42.973Z,98579.63
2022-09-28T01:01:45.345Z,98572.16
2022-09-28T01:02:48.191Z,98576.03
2022-09-28T01:03:50.944Z,98572.16
2022-09-28T01:04:54.448Z,98573.00
2022-09-28T01:05:59.616Z,98577.38
2022-09-28T01:07:02.588Z,98573.00
2022-09-28T01:08:04.990Z,98571.06
2022-09-28T01:09:10.538Z,98568.31
2022-09-28T01:10:13.375Z,98569.13
2022-09-28T01:11:15.500Z,98566.38
2022-09-28T01:12:18.031Z,98560.84
2022-09-28T01:13:21.694Z,98567.19
2022-09-28T01:14:25.881Z,98570.75
2022-09-28T01:15:29.574Z,98562.50
2022-09-28T01:16:52.768Z,98568.00
2022-09-28T01:18:34.692Z,98557.00
2022-09-28T01:19:52.873Z,98566.09
2022-09-28T01:21:01.573Z,98565.25
2022-09-28T01:22:48.586Z,98562.81
2022-09-28T01:24:34.425Z,98562.50
2022-09-28T01:25:50.944Z,98560.84
2022-09-28T01:27:11.664Z,98563.91
2022-09-28T01:28:16.795Z,98555.66
2022-09-28T01:29:42.306Z,98561.16
2022-09-28T01:30:59.604Z,98561.16
2022-09-28T01:32:29.991Z,98560.34
2022-09-28T01:33:42.242Z,98564.22
2022-09-28T01:34:50.190Z,98559.81
2022-09-28T01:36:03.001Z,98544.38
2022-09-28T01:37:09.854Z,98555.13
2022-09-28T01:38:24.022Z,98553.19
2022-09-28T01:39:37.054Z,98546.88
2022-09-28T01:40:41.342Z,98550.44
2022-09-28T01:41:49.345Z,98550.75
2022-09-28T01:43:01.121Z,98548.78
2022-09-28T01:44:07.868Z,98545.75
2022-09-28T01:45:19.061Z,98546.03
2022-09-28T01:46:32.954Z,98546.88
2022-09-28T01:47:38.578Z,98555.13
2022-09-28T01:48:58.674Z,98542.47
2022-09-28T01:50:09.695Z,98536.97
2022-09-28T01:51:18.946Z,98546.03
2022-09-28T01:52:29.450Z,98542.47
2022-09-28T01:53:43.512Z,98538.06
2022-09-28T01:55:09.535Z,98542.47
2022-09-28T01:56:17.543Z,98536.97
2022-09-28T01:57:27.335Z,98535.31
2022-09-28T01:58:35.717Z,98534.53
2022-09-28T01:59:43.425Z,98536.13
2022-09-28T02:00:53.676Z,98539.19
2022-09-28T02:02:00.778Z,98538.06
2022-09-28T02:03:12.638Z,98535.31
2022-09-28T02:04:27.651Z,98532.56
2022-09-28T02:05:32.993Z,98533.69
2022-09-28T02:06:38.982Z,98530.94
2022-09-28T02:07:53.936Z,98532.88
2022-09-28T02:09:02.959Z,98536.44
2022-09-28T02:10:19.486Z,98533.69
2022-09-28T02:11:22.832Z,98543.03
2022-09-28T02:12:51.875Z,98538.38
2022-09-28T02:14:04.029Z,98533.69
2022-09-28T02:15:42.563Z,98533.97
2022-09-28T02:16:48.173Z,98532.88
2022-09-28T02:17:50.829Z,98542.25
2022-09-28T02:18:53.254Z,98533.97
2022-09-28T02:19:55.580Z,98535.94
2022-09-28T02:21:15.566Z,98535.94
2022-09-28T02:22:33.931Z,98535.09
2022-09-28T02:23:39.696Z,98531.53
2022-09-28T02:24:59.466Z,98527.13
2022-09-28T02:26:09.123Z,98530.97
2022-09-28T02:27:29.853Z,98527.13
2022-09-28T02:28:32.239Z,98529.31
2022-09-28T02:29:34.458Z,98521.06
2022-09-28T02:30:40.318Z,98533.19
2022-09-28T02:31:42.882Z,98531.56
2022-09-28T02:32:49.220Z,98525.25
2022-09-28T02:33:55.071Z,98522.75
2022-09-28T02:34:57.441Z,98531.00
2022-09-28T02:36:00.813Z,98518.38
2022-09-28T02:37:04.925Z,98521.41
2022-09-28T02:38:07.267Z,98520.59
2022-09-28T02:39:14.441Z,98527.75
2022-09-28T02:40:20.077Z,98525.28
2022-09-28T02:41:46.755Z,98528.03
2022-09-28T02:43:10.590Z,98525.56
2022-09-28T02:44:33.746Z,98519.25
2022-09-28T02:45:51.975Z,98509.03
2022-09-28T02:47:18.415Z,98512.94
2022-09-28T02:48:43.661Z,98514.84
2022-09-28T02:50:21.647Z,98507.19
2022-09-28T02:51:36.567Z,98509.94
2022-09-28T02:53:03.240Z,98503.91
2022-09-28T02:54:31.315Z,98500.34
2022-09-28T02:56:10.217Z,98499.81
2022-09-28T02:57:22.952Z,98504.50
2022-09-28T02:58:48.017Z,98503.94
2022-09-28T03:00:12.092Z,98501.50
2022-09-28T03:01:37.457Z,98501.00
2022-09-28T03:02:58.184Z,98506.50
2022-09-28T03:04:39.621Z,98492.50
2022-09-28T03:06:14.488Z,98504.59
2022-09-28T03:07:34.176Z,98496.66
2022-09-28T03:08:46.367Z,98500.81
2022-09-28T03:09:58.875Z,98498.34
2022-09-28T03:11:10.363Z,98495.84
2022-09-28T03:12:16.491Z,98496.16
2022-09-28T03:13:19.512Z,98495.66
2022-09-28T03:14:22.170Z,98491.25
2022-09-28T03:15:33.547Z,98489.91
2022-09-28T03:16:36.485Z,98494.56
2022-09-28T03:17:38.786Z,98491.31
2022-09-28T03:18:41.671Z,98497.91
2022-09-28T03:19:43.893Z,98484.44
2022-09-28T03:20:47.182Z,98493.00
2022-09-28T03:21:49.962Z,98480.34
2022-09-28T03:23:19.846Z,98485.31
2022-09-28T03:24:15.300Z,98488.91
2022-09-28T03:25:17.657Z,98485.91
2022-09-28T03:26:20.658Z,98489.75
2022-09-28T03:27:22.905Z,98488.41
2022-09-28T03:28:26.180Z,98484.00
2022-09-28T03:29:31.461Z,98493.38
2022-09-28T03:30:36.763Z,98484.31
2022-09-28T03:31:39.148Z,98486.25
2022-09-28T03:32:41.692Z,98488.16
2022-09-28T03:33:44.493Z,98478.56
2022-09-28T03:34:46.820Z,98484.06
2022-09-28T03:35:50.596Z,98488.19
2022-09-28T03:36:53.753Z,98488.50
2022-09-28T03:37:56.602Z,98489.34
2022-09-28T03:39:00.770Z,98490.44
2022-09-28T03:40:03.467Z,98487.97
2022-09-28T03:41:05.839Z,98481.66
2022-09-28T03:42:13.242Z,98490.72
2022-09-28T03:43:19.718Z,98489.91
2022-09-28T03:44:21.964Z,98482.78
2022-09-28T03:45:24.937Z,98493.78
2022-09-28T03:46:27.633Z,98488.28
2022-09-28T03:47:33.417Z,98492.94
2022-09-28T03:48:36.296Z,98489.09
2022-09-28T03:49:38.532Z,98497.63
2022-09-28T03:50:40.740Z,98496.78
2022-09-28T03:51:45.049Z,98495.97
2022-09-28T03:52:50.229Z,98497.63
2022-09-28T03:53:52.584Z,98494.88
2022-09-28T03:54:54.721Z,98492.94
2022-09-28T03:56:03.311Z,98487.44
2022-09-28T03:57:06.207Z,98487.44
2022-09-28T03:58:08.699Z,98484.69
2022-09-28T03:59:11.111Z,98492.13
2022-09-28T04:00:13.521Z,98486.63
2022-09-28T04:01:18.802Z,98483.88
2022-09-28T04:02:22.631Z,98476.44
2022-09-28T04:03:25.723Z,98478.09
2022-09-28T04:04:28.212Z,98483.59
2022-09-28T04:05:31.129Z,98479.72
2022-09-28T04:06:33.550Z,98482.47
2022-09-28T04:07:35.911Z,98473.13
2022-09-28T04:08:38.206Z,98475.03
2022-09-28T04:09:40.401Z,98471.19
2022-09-28T04:10:42.988Z,98472.00
2022-09-28T04:12:02.913Z,98464.59
2022-09-28T04:13:06.040Z,98456.34
2022-09-28T04:14:08.237Z,98451.34
2022-09-28T04:15:11.126Z,98453.28
2022-09-28T04:16:13.395Z,98445.84
2022-09-28T04:17:18.932Z,98452.19
2022-09-28T04:18:23.300Z,98445.56
2022-09-28T04:19:38.583Z,98441.69
2022-09-28T04:21:07.388Z,98445.28
2022-09-28T04:22:14.693Z,98452.69
2022-09-28T04:23:16.966Z,98456.00
2022-09-28T04:24:20.403Z,98456.81
2022-09-28T04:25:22.979Z,98448.56
2022-09-28T04:26:27.674Z,98447.44
2022-09-28T04:27:48.506Z,98447.44
2022-09-28T04:29:10.245Z,98441.94
2022-09-28T04:30:12.557Z,98442.75
2022-09-28T04:31:22.639Z,98440.53
2022-09-28T04:32:24.864Z,98448.00
2022-09-28T04:33:27.520Z,98443.28
2022-09-28T04:34:34.525Z,98444.09
2022-09-28T04:35:37.975Z,98433.09
2022-09-28T04:36:40.987Z,98435.84
2022-09-28T04:37:45.184Z,98441.34
2022-09-28T04:38:54.499Z,98433.94
2022-09-28T04:39:59.200Z,98425.69
2022-09-28T04:41:02.336Z,98429.25
2022-09-28T04:42:04.703Z,98426.50
2022-09-28T04:43:07.081Z,98422.94
2022-09-28T04:44:09.618Z,98423.44
2022-09-28T04:45:11.828Z,98427.34
2022-09-28T04:46:18.983Z,98422.66
2022-09-28T04:47:32.653Z,98410.84
2022-09-28T04:48:53.547Z,98406.94
2022-09-28T04:50:07.578Z,98405.34
2022-09-28T04:51:11.752Z,98401.75
2022-09-28T04:52:18.309Z,98396.25
2022-09-28T04:53:25.861Z,98404.50
2022-09-28T04:54:28.299Z,98403.41
2022-09-28T04:55:32.500Z,98403.41
2022-09-28T04:56:34.824Z,98397.88
2022-09-28T04:57:37.025Z,98398.69
2022-09-28T04:58:40.063Z,98405.03
2022-09-28T04:59:42.569Z,98402.28
2022-09-28T05:00:44.773Z,98403.09
2022-09-28T05:02:03.111Z,98403.94
2022-09-28T05:03:18.078Z,98397.28
2022-09-28T05:04:38.976Z,98397.59
2022-09-28T05:05:45.241Z,98400.03
2022-09-28T05:07:06.318Z,98394.53
2022-09-28T05:08:08.904Z,98395.38
2022-09-28T05:09:11.097Z,98389.88
2022-09-28T05:10:13.432Z,98391.00
2022-09-28T05:11:16.206Z,98395.38
2022-09-28T05:12:18.469Z,98397.03
2022-09-28T05:13:21.121Z,98398.94
2022-09-28T05:14:23.383Z,98392.63
2022-09-28T05:15:26.539Z,98392.63
2022-09-28T05:16:31.039Z,98393.75
2022-09-28T05:18:09.008Z,98383.28
2022-09-28T05:19:22.846Z,98386.84
2022-09-28T05:20:26.566Z,98388.78
2022-09-28T05:21:30.462Z,98392.34
2022-09-28T05:22:33.095Z,98395.09
2022-09-28T05:23:35.284Z,98395.09
2022-09-28T05:24:37.465Z,98398.13
2022-09-28T05:25:40.484Z,98392.34
2022-09-28T05:26:59.345Z,98387.94
2022-09-28T05:28:03.472Z,98391.53
2022-09-28T05:29:24.407Z,98383.28
2022-09-28T05:30:45.087Z,98381.34
2022-09-28T05:32:02.018Z,98382.13
2022-09-28T05:33:13.150Z,98373.09
2022-09-28T05:34:25.795Z,98372.28
2022-09-28T05:35:30.901Z,98378.59
2022-09-28T05:36:33.842Z,98376.63
2022-09-28T05:37:37.054Z,98382.13
2022-09-28T05:38:39.722Z,98378.59
2022-09-28T05:39:42.002Z,98376.63
2022-09-28T05:40:44.164Z,98377.47
2022-09-28T05:41:46.405Z,98376.63
2022-09-28T05:42:48.860Z,98364.53
2022-09-28T05:43:52.387Z,98371.97
2022-09-28T05:44:55.531Z,98368.94
2022-09-28T05:45:59.669Z,98366.97
2022-09-28T05:47:02.096Z,98364.22
2022-09-28T05:48:04.512Z,98363.13
2022-09-28T05:49:06.628Z,98357.63
2022-09-28T05:50:11.967Z,98356.53
2022-09-28T05:51:14.900Z,98360.06
2022-09-28T05:52:17.136Z,98358.97
2022-09-28T05:53:20.552Z,98357.88
2022-09-28T05:54:22.794Z,98356.44
2022-09-28T05:55:27.584Z,98350.41
2022-09-28T05:56:30.953Z,98353.72
2022-09-28T05:57:34.071Z,98353.72
2022-09-28T05:58:38.693Z,98349.00
2022-09-28T05:59:40.934Z,98347.09
2022-09-28T06:00:43.343Z,98344.34
2022-09-28T06:01:45.752Z,98345.97
2022-09-28T06:03:06.610Z,98342.09
2022-09-28T06:04:10.875Z,98333.03
2022-09-28T06:05:13.096Z,98325.59
2022-09-28T06:06:15.231Z,98323.69
2022-09-28T06:07:19.104Z,98323.38
2022-09-28T06:08:21.754Z,98327.78
2022-09-28T06:09:32.237Z,98318.69
2022-09-28T06:10:36.893Z,98328.59
2022-09-28T06:11:39.277Z,98325.81
2022-09-28T06:12:53.144Z,98329.69
2022-09-28T06:13:57.569Z,98324.19
2022-09-28T06:15:02.622Z,98326.63
2022-09-28T06:16:05.132Z,98311.78
2022-09-28T06:17:08.971Z,98308.72
2022-09-28T06:18:15.303Z,98315.06
2022-09-28T06:19:40.236Z,98306.81
2022-09-28T06:21:20.729Z,98304.56
2022-09-28T06:22:22.984Z,98313.66
2022-09-28T06:23:48.937Z,98312.81
2022-09-28T06:24:51.996Z,98303.44
2022-09-28T06:25:54.209Z,98297.13
2022-09-28T06:26:56.359Z,98296.84
2022-09-28T06:28:02.864Z,98297.13
2022-09-28T06:29:05.084Z,98295.19
2022-09-28T06:30:07.476Z,98298.78
2022-09-28T06:31:10.747Z,98304.28
2022-09-28T06:32:19.892Z,98297.94
2022-09-28T06:33:25.733Z,98302.34
2022-09-28T06:34:27.872Z,98302.03
2022-09-28T06:35:32.969Z,98296.53
2022-09-28T06:36:35.516Z,98300.94
2022-09-28T06:37:37.850Z,98305.31
2022-09-28T06:38:40.456Z,98298.19
2022-09-28T06:39:42.649Z,98297.06
2022-09-28T06:40:52.710Z,98301.97
2022-09-28T06:41:54.893Z,98296.47
2022-09-28T06:43:07.113Z,98307.16
2022-09-28T06:44:27.644Z,98310.75
2022-09-28T06:45:53.167Z,98300.25
2022-09-28T06:47:18.577Z,98309.34
2022-09-28T06:48:39.272Z,98308.22
2022-09-28T06:49:44.507Z,98305.97
2022-09-28T06:50:52.610Z,98305.97
2022-09-28T06:52:02.264Z,98298.53
2022-09-28T06:53:20.886Z,98299.88
2022-09-28T06:54:26.034Z,98290.81
2022-09-28T06:55:51.747Z,98286.66
2022-09-28T06:56:53.982Z,98295.72
2022-09-28T06:58:00.533Z,98300.09
2022-09-28T06:59:03.080Z,98302.84
2022-09-28T07:00:05.655Z,98301.75
2022-09-28T07:01:07.953Z,98297.88
2022-09-28T07:02:31.411Z,98300.63
2022-09-28T07:04:01.981Z,98299.22
2022-09-28T07:05:27.257Z,98312.69
2022-09-28T07:06:38.670Z,98298.09
2022-09-28T07:07:59.655Z,98300.59
2022-09-28T07:09:32.223Z,98299.44
2022-09-28T07:10:49.997Z,98303.84
2022-09-28T07:12:04.991Z,98306.09
2022-09-28T07:13:48.516Z,98312.41
2022-09-28T07:14:56.404Z,98304.69
2022-09-28T07:16:00.475Z,98305.50
2022-09-28T07:17:12.954Z,98309.59
2022-09-28T07:18:18.803Z,98312.34
2022-09-28T07:19:21.032Z,98310.38
2022-09-28T07:20:27.831Z,98316.72
2022-09-28T07:21:30.811Z,98321.13
2022-09-28T07:22:43.255Z,98327.13
2022-09-28T07:23:53.899Z,98325.22
2022-09-28T07:24:59.132Z,98331.22
2022-09-28T07:26:24.325Z,98331.75
2022-09-28T07:27:57.640Z,98332.25
2022-09-28T07:29:18.231Z,98331.16
2022-09-28T07:30:35.317Z,98333.59
2022-09-28T07:31:41.409Z,98336.06
2022-09-28T07:33:04.420Z,98334.13
2022-09-28T07:34:27.779Z,98329.44
2022-09-28T07:35:34.574Z,98329.44
2022-09-28T07:36:36.801Z,98325.56
2022-09-28T07:37:42.047Z,98328.00
2022-09-28T07:38:44.159Z,98324.44
2022-09-28T07:40:05.120Z,98328.00
2022-09-28T07:41:12.618Z,98321.38
2022-09-28T07:42:19.411Z,98322.19
2022-09-28T07:43:22.292Z,98320.28
2022-09-28T07:44:26.927Z,98312.81
2022-09-28T07:45:30.287Z,98316.41
2022-09-28T07:46:36.982Z,98324.38
2022-09-28T07:47:49.433Z,98325.19
2022-09-28T07:49:00.396Z,98327.63
2022-09-28T07:50:09.871Z,98332.03
2022-09-28T07:51:31.602Z,98327.84
2022-09-28T07:53:12.357Z,98325.94
2022-09-28T07:54:28.581Z,98319.59
2022-09-28T07:55:55.848Z,98320.41
2022-09-28T07:57:09.645Z,98325.63
2022-09-28T07:58:28.972Z,98316.25
2022-09-28T07:59:53.710Z,98322.56
2022-09-28T08:01:16.850Z,98333.28
2022-09-28T08:02:20.640Z,98328.59
2022-09-28T08:03:23.580Z,98327.47
2022-09-28T08:04:25.745Z,98325.53
2022-09-28T08:05:32.320Z,98324.72
2022-09-28T08:06:34.621Z,98324.44
2022-09-28T08:07:38.446Z,98329.94
2022-09-28T08:08:47.824Z,98334.31
2022-09-28T08:09:52.058Z,98334.00
2022-09-28T08:11:03.261Z,98338.69
2022-09-28T08:12:24.300Z,98339.50
2022-09-28T08:13:52.944Z,98337.59
2022-09-28T08:15:37.124Z,98338.41
2022-09-28T08:16:53.386Z,98338.09
2022-09-28T08:18:14.757Z,98334.22
2022-09-28T08:19:17.450Z,98332.31
2022-09-28T08:20:38.578Z,98337.50
2022-09-28T08:21:46.895Z,98331.47
2022-09-28T08:22:49.631Z,98336.66
2022-09-28T08:23:52.067Z,98337.50
2022-09-28T08:24:54.229Z,98333.63
2022-09-28T08:25:56.522Z,98331.69
2022-09-28T08:26:59.090Z,98343.25
2022-09-28T08:28:09.815Z,98343.75
2022-09-28T08:29:19.630Z,98344.84
2022-09-28T08:30:24.541Z,98341.81
2022-09-28T08:31:35.109Z,98334.06
2022-09-28T08:32:53.110Z,98336.81
2022-09-28T08:34:18.969Z,98338.97
2022-09-28T08:35:41.870Z,98331.53
2022-09-28T08:36:50.779Z,98335.91
2022-09-28T08:38:14.794Z,98349.38
2022-09-28T08:39:36.305Z,98351.03
2022-09-28T08:41:33.261Z,98345.22
2022-09-28T08:43:03.134Z,98351.53
2022-09-28T08:44:58.120Z,98343.78
2022-09-28T08:46:26.432Z,98351.22
2022-09-28T08:48:21.231Z,98340.19
2022-09-28T08:49:50.150Z,98342.94
2022-09-28T08:51:15.683Z,98340.72
2022-09-28T08:52:29.944Z,98345.44
2022-09-28T08:53:46.032Z,98342.69
2022-09-28T08:54:58.957Z,98347.88
2022-09-28T08:56:44.730Z,98341.53
2022-09-28T08:57:59.979Z,98343.47
2022-09-28T08:59:05.529Z,98338.78
2022-09-28T09:00:19.469Z,98345.94
2022-09-28T09:01:26.728Z,98340.94
2022-09-28T09:02:38.071Z,98340.41
2022-09-28T09:03:49.967Z,98340.09
2022-09-28T09:05:42.161Z,98336.25
2022-09-28T09:07:11.027Z,98338.69
2022-09-28T09:08:27.259Z,98336.75
2022-09-28T09:09:54.881Z,98337.25
2022-09-28T09:11:18.833Z,98338.91
2022-09-28T09:12:39.508Z,98345.25
2022-09-28T09:14:09.332Z,98344.09
2022-09-28T09:15:20.207Z,98341.06
2022-09-28T09:16:30.422Z,98337.16
2022-09-28T09:18:19.266Z,98333.31
2022-09-28T09:19:35.684Z,98334.94
2022-09-28T09:21:15.557Z,98327.19
2022-09-28T09:22:31.403Z,98328.81
2022-09-28T09:23:39.319Z,98326.88
2022-09-28T09:24:50.064Z,98325.75
2022-09-28T09:25:59.757Z,98322.19
2022-09-28T09:27:14.402Z,98323.00
2022-09-28T09:28:31.389Z,98326.59
2022-09-28T09:29:56.612Z,98320.75
2022-09-28T09:31:08.790Z,98324.03
2022-09-28T09:32:16.765Z,98318.53
2022-09-28T09:33:31.253Z,98321.28
2022-09-28T09:35:31.009Z,98316.56
2022-09-28T09:37:17.209Z,98321.28
2022-09-28T09:38:52.051Z,98318.81
2022-09-28T09:40:35.747Z,98321.88
2022-09-28T09:42:23.704Z,98321.88
2022-09-28T09:44:14.058Z,98323.00
2022-09-28T09:45:31.764Z,98314.22
2022-09-28T09:47:11.549Z,98315.34
2022-09-28T09:48:31.536Z,98316.97
2022-09-28T09:49:40.208Z,98326.38
2022-09-28T09:50:54.066Z,98323.59
2022-09-28T09:52:03.343Z,98325.56
2022-09-28T09:53:24.413Z,98326.38
2022-09-28T09:54:30.353Z,98326.69
2022-09-28T09:55:44.533Z,98315.97
2022-09-28T09:57:19.528Z,98314.31
2022-09-28T09:58:46.308Z,98319.81
2022-09-28T10:00:00.556Z,98312.97
2022-09-28T10:01:24.298Z,98314.63
2022-09-28T10:02:48.625Z,98303.91
2022-09-28T10:04:12.049Z,98307.47
2022-09-28T10:05:18.773Z,98313.28
2022-09-28T10:06:28.193Z,98332.59
2022-09-28T10:07:52.238Z,98324.63
2022-09-28T10:09:03.540Z,98314.72
2022-09-28T10:10:19.315Z,98319.69
2022-09-28T10:11:31.578Z,98329.91
2022-09-28T10:12:34.474Z,98333.25
2022-09-28T10:13:37.201Z,98329.69
2022-09-28T10:14:50.121Z,98338.59
2022-09-28T10:15:52.997Z,98330.59
2022-09-28T10:17:02.453Z,98323.47
2022-09-28T10:18:23.436Z,98328.47
2022-09-28T10:19:44.616Z,98323.56
2022-09-28T10:21:15.808Z,98328.03
2022-09-28T10:22:31.425Z,98325.88
2022-09-28T10:23:41.973Z,98309.97
2022-09-28T10:24:51.151Z,98316.59
2022-09-28T10:26:02.608Z,98306.19
2022-09-28T10:27:08.434Z,98305.66
2022-09-28T10:28:18.757Z,98306.44
2022-09-28T10:29:26.416Z,98316.97
2022-09-28T10:30:31.461Z,98314.22
2022-09-28T10:31:37.814Z,98312.56
2022-09-28T10:32:45.117Z,98306.25
2022-09-28T10:33:47.651Z,98311.78
2022-09-28T10:34:51.607Z,98309.81
2022-09-28T10:35:57.938Z,98313.69
2022-09-28T10:37:10.491Z,98310.94
2022-09-28T10:38:38.814Z,98307.69
2022-09-28T10:39:53.645Z,98306.56
2022-09-28T10:40:59.617Z,98306.84
2022-09-28T10:42:19.940Z,98302.16
2022-09-28T10:43:52.080Z,98305.22
2022-09-28T10:45:05.352Z,98299.72
2022-09-28T10:46:21.373Z,98291.75
2022-09-28T10:47:31.394Z,98295.63
2022-09-28T10:48:45.707Z,98289.28
2022-09-28T10:49:50.733Z,98293.16
2022-09-28T10:51:06.529Z,98289.91
2022-09-28T10:52:30.702Z,98289.38
2022-09-28T10:53:37.125Z,98294.06
2022-09-28T10:54:56.257Z,98291.09
2022-09-28T10:56:04.768Z,98283.63
2022-09-28T10:57:28.144Z,98278.44
2022-09-28T10:58:41.999Z,98281.81
2022-09-28T10:59:48.620Z,98282.13
2022-09-28T11:01:13.105Z,98290.38
2022-09-28T11:02:24.479Z,98302.19
2022-09-28T11:03:30.541Z,98300.56
2022-09-28T11:04:41.230Z,98303.63
2022-09-28T11:05:56.113Z,98295.34
2022-09-28T11:07:01.975Z,98308.31
2022-09-28T11:08:07.801Z,98309.13
2022-09-28T11:09:30.850Z,98302.81
2022-09-28T11:10:36.096Z,98300.06
2022-09-28T11:11:47.356Z,98305.56
2022-09-28T11:12:51.466Z,98299.22
2022-09-28T11:14:01.248Z,98302.81
2022-09-28T11:15:12.113Z,98297.31
2022-09-28T11:16:28.594Z,98292.59
2022-09-28T11:17:33.917Z,98289.34
2022-09-28T11:18:36.180Z,98287.94
2022-09-28T11:19:43.358Z,98287.94
2022-09-28T11:20:46.119Z,98286.78
2022-09-28T11:21:48.317Z,98286.78
2022-09-28T11:22:59.238Z,98282.13
2022-09-28T11:24:19.457Z,98288.44
2022-09-28T11:25:24.861Z,98288.44
2022-09-28T11:26:34.641Z,98292.81
2022-09-28T11:27:36.915Z,98292.81
2022-09-28T11:28:39.781Z,98301.59
2022-09-28T11:29:59.276Z,98294.97
2022-09-28T11:31:08.905Z,98293.31
2022-09-28T11:32:43.154Z,98294.97
2022-09-28T11:33:51.261Z,98293.03
2022-09-28T11:35:00.154Z,98303.75
2022-09-28T11:36:17.201Z,98305.41
2022-09-28T11:37:57.451Z,98297.94
2022-09-28T11:39:57.265Z,98306.72
2022-09-28T11:41:30.051Z,98303.69
2022-09-28T11:43:01.994Z,98297.84
2022-09-28T11:44:23.023Z,98303.59
2022-09-28T11:46:04.080Z,98299.09
2022-09-28T11:47:24.887Z,98305.66
2022-09-28T11:48:42.615Z,98302.28
2022-09-28T11:50:03.793Z,98307.13
2022-09-28T11:51:23.200Z,98305.38
2022-09-28T11:52:31.019Z,98299.78
2022-09-28T11:53:39.062Z,98308.78
2022-09-28T11:54:48.642Z,98304.00
2022-09-28T11:56:11.060Z,98307.16
2022-09-28T11:57:28.727Z,98315.03
2022-09-28T11:58:39.633Z,98310.75
2022-09-28T11:59:53.603Z,98311.97
2022-09-28T12:01:08.383Z,98320.69
2022-09-28T12:02:41.828Z,98316.41
2022-09-28T12:03:53.855Z,98327.00
2022-09-28T12:05:08.815Z,98324.66
2022-09-28T12:06:17.986Z,98330.06
2022-09-28T12:07:41.222Z,98329.69
2022-09-28T12:08:55.530Z,98331.22
2022-09-28T12:10:45.526Z,98328.03
2022-09-28T12:11:54.662Z,98325.16
2022-09-28T12:13:28.237Z,98329.78
2022-09-28T12:14:34.729Z,98326.06
2022-09-28T12:16:11.546Z,98334.56
2022-09-28T12:17:36.358Z,98328.44
2022-09-28T12:19:03.449Z,98332.69
2022-09-28T12:20:26.967Z,98327.38
2022-09-28T12:21:51.487Z,98333.91
2022-09-28T12:22:59.480Z,98324.19
2022-09-28T12:24:21.858Z,98322.44
2022-09-28T12:25:25.364Z,98326.50
2022-09-28T12:26:37.997Z,98328.34
2022-09-28T12:27:46.479Z,98325.28
2022-09-28T12:28:50.756Z,98325.28
2022-09-28T12:30:02.263Z,98320.75
2022-09-28T12:31:17.923Z,98332.31
2022-09-28T12:32:38.335Z,98332.81
2022-09-28T12:33:44.324Z,98330.25
2022-09-28T12:34:46.569Z,98337.41
2022-09-28T12:36:13.691Z,98328.47
2022-09-28T12:37:46.481Z,98338.59
2022-09-28T12:39:30.880Z,98329.34
2022-09-28T12:40:41.756Z,98339.81
2022-09-28T12:41:47.982Z,98343.06
2022-09-28T12:42:56.578Z,98340.47
2022-09-28T12:44:22.254Z,98343.75
2022-09-28T12:45:27.922Z,98345.09
2022-09-28T12:47:05.702Z,98348.00
2022-09-28T12:48:23.709Z,98346.56
2022-09-28T12:50:36.586Z,98343.50
2022-09-28T12:51:19.075Z,98345.97
2022-09-28T12:52:33.693Z,98351.47
2022-09-28T12:54:00.510Z,98351.16
2022-09-28T12:56:35.272Z,98352.81
2022-09-28T12:58:00.588Z,98356.69
2022-09-28T12:59:23.459Z,98350.03
2022-09-28T13:00:56.794Z,98351.69
2022-09-28T13:02:21.787Z,98362.72
2022-09-28T13:03:45.801Z,98352.47
2022-09-28T13:05:02.335Z,98358.00
2022-09-28T13:06:23.947Z,98363.22
2022-09-28T13:07:39.306Z,98354.59
2022-09-28T13:08:48.246Z,98356.25
2022-09-28T13:12:16.406Z,98356.47
2022-09-28T13:13:28.032Z,98360.88
2022-09-28T13:14:53.258Z,98353.38
2022-09-28T13:16:07.752Z,98363.31
2022-09-28T13:17:30.119Z,98361.69
2022-09-28T13:18:45.555Z,98365.75
2022-09-28T13:20:08.088Z,98364.13
2022-09-28T13:21:26.402Z,98366.09
2022-09-28T13:22:54.879Z,98363.63
2022-09-28T13:24:14.380Z,98382.16
2022-09-28T13:25:27.011Z,98372.25
2022-09-28T13:26:35.526Z,98377.78
2022-09-28T13:27:42.484Z,98384.13
2022-09-28T13:28:47.150Z,98378.91
2022-09-28T13:29:51.251Z,98381.97
2022-09-28T13:30:56.098Z,98390.25
2022-09-28T13:32:00.121Z,98390.53
2022-09-28T13:33:06.019Z,98386.97
2022-09-28T13:34:22.628Z,98387.78
2022-09-28T13:35:25.915Z,98388.94
2022-09-28T13:36:28.002Z,98388.09
2022-09-28T13:37:30.130Z,98387.28
2022-09-28T13:38:50.019Z,98386.47
2022-09-28T13:39:53.220Z,98401.44
2022-09-28T13:41:04.703Z,98400.59
2022-09-28T13:42:09.456Z,98399.78
2022-09-28T13:43:26.904Z,98399.78
2022-09-28T13:44:47.245Z,98398.16
2022-09-28T13:45:54.041Z,98396.19
2022-09-28T13:47:05.018Z,98397.34
2022-09-28T13:48:15.154Z,98398.97
2022-09-28T13:50:00.684Z,98403.69
2022-09-28T13:51:21.066Z,98401.72
2022-09-28T13:52:44.324Z,98402.88
2022-09-28T13:54:08.137Z,98408.91
2022-09-28T13:55:44.157Z,98402.88
2022-09-28T13:57:04.798Z,98398.16
2022-09-28T13:58:15.890Z,98412.78
2022-09-28T13:59:27.997Z,98412.28
2022-09-28T14:00:50.669Z,98413.09
2022-09-28T14:02:06.782Z,98410.66
2022-09-28T14:03:43.049Z,98413.41
2022-09-28T14:05:06.745Z,98418.94
2022-09-28T14:06:28.439Z,98421.72
2022-09-28T14:07:33.658Z,98421.72
2022-09-28T14:08:48.938Z,98429.19
2022-09-28T14:10:24.684Z,98430.31
2022-09-28T14:11:35.922Z,98434.22
2022-09-28T14:12:38.052Z,98435.31
2022-09-28T14:13:43.410Z,98435.66